Weather observations for the past three days for
King Airport, St. Thomas
Imperial (Metric)
Date Time (ast) Wind (mph) Vis. (mi.) Weather Sky Cond. Temperature (ºF) Relative Humidity Wind Chill (°F) Heat Index (°F) Pressure Precipitation (in)
Air Dwpt 6 hour altimeter (in) sea level (mb) 1 hr 3 hr 6 hr
Max. Min.
01 16:53 E 6 10.00 Partly Cloudy SCT030 78.8 78.8 100% 83 29.96 0.0
01 15:53 E 12 10.00 Partly Cloudy SCT030 86 75.2 70% 95 29.96 0.0
01 14:53 E 12 10.00 Partly Cloudy SCT030 82.4 78.8 89% 92 29.96 0.0
01 13:53 E 13 10.00 Partly Cloudy SCT035 87.8 75.2 66% 98 29.99 0.0
01 12:53 SE 14 10.00 Partly Cloudy SCT035 87.8 73.4 62% 96 30.01 0.0
01 11:53 E 6 10.00 Partly Cloudy SCT030 82.4 77 84% 91 30.02 0.0
01 10:53 E 12 10.00 Partly Cloudy SCT030 86 78.8 79% 99 30.03 0.0
01 09:53 S 6 10.00 Partly Cloudy SCT030 86 0 0% 30.03 1017.8
01 08:53 E 6 10.00 A Few Clouds FEW030 0 0 0% 0 0.0
01 07:53 E 8 10.00 Partly Cloudy SCT030 82.4 75.2 79% 89 0 0.0
31 20:53 E 13 0.00 NULL NULL 0 0 0% 0 0.0
31 18:53 E 8 10.00 A Few Clouds FEW030 0 0 0% 29.98 1015.4
31 17:53 E 10 10.00 A Few Clouds FEW030 0 0 0% 29.98 0.0
31 16:53 SE 16 10.00 Mostly Cloudy SCT030 BKN055 84 77 80% 94 29.97 1015.8
31 15:53 SE 16 10.00 Mostly Cloudy SCT035 BKN055 86 0 0% 29.98 1016.1
31 14:53 SE 16 10.00 Mostly Cloudy SCT035 BKN055 78.8 0 0% 29.98 0.0
31 13:53 SE 12 10.00 Partly Cloudy SCT030 0 0 0% 30.01 0.0
31 12:53 SE 10 10.00 Mostly Cloudy SCT030 BKN055 82.4 0 0% 30.01 0.0
31 11:53 SE 15 10.00 Mostly Cloudy SCT035 BKN060 84.2 0 0% 30.01 0.0
31 10:53 E 16 10.00 Mostly Cloudy SCT035 BKN060 0 0 0% 0 0.0
31 09:53 SE 14 10.00 Partly Cloudy SCT030 0 0 0% 0 0.0
30 20:53 E 8 10.00 NULL NULL 0 0 0% 29.96 0.0
30 19:53 E 8 10.00 NULL NULL 0 0 0% 29.95 0.0
30 18:53 E 8 10.00 Partly Cloudy SCT030 0 0 0% 29.94 0.0
30 17:53 SE 12 10.00 Partly Cloudy SCT030 0 0 0% 29.94 0.0
30 16:53 SE 12 10.00 Partly Cloudy SCT030 82.4 77 84% 91 29.92 0.0
30 15:53 SE 10 10.00 Partly Cloudy SCT030 80.6 77 89% 87 29.92 0.0
30 14:53 E 14 10.00 Mostly Cloudy SCT030 BKN060 0 0 0% 29.92 0.0
30 13:53 SE 14 10.00 Mostly Cloudy SCT035 BKN060 0 0 0% 0 0.0
30 12:53 SE 17 10.00 Partly Cloudy SCT030 28.4 26.6 93% 17 29.94 0.0
30 11:53 SE 17 10.00 Partly Cloudy SCT030 82.4 0 0% 29.92 0.0
30 10:53 S 14 10.00 Mostly Cloudy FEW020 SCT030 BKN055 82.4 0 0% 29.94 1014.7
30 09:53 E 9 10.00 Mostly Cloudy FEW020 SCT030 BKN055 82 79 90% 92 29.93 1014.4
30 08:53 E 16 10.00 Overcast SCT030 OVC040 82.4 78.8 89% 92 29.89 0.0
30 07:53 E 14 10.00 Mostly Cloudy SCT030 BKN060 82.4 78.8 89% 92 29.89 0.0
29 20:53 NE 10 10.00 Partly Cloudy SCT030 0 0 0% 0 0.0
29 18:53 E 6 10.00 Partly Cloudy SCT030 86 0 0% 29.95 0.0
29 17:53 NE 6 10.00 Partly Cloudy SCT030 87.8 0 0% 29.95 0.0
Date Time (ast) Wind (mph) Vis. (mi.) Weather Sky Cond. Air Dwpt Max. Min. Relative Humidity Wind Chill (°F) Heat Index (°F) altimeter (in) sea level (mb) 1 hr 3 hr 6 hr
6 hour
Temperature (ºF) Pressure Precipitation (in)